| time (UTC) | temp C | wind direction | speed KPH | gust KPH | rain 1hr cm | rain 24hr cm | rain mn cm | humidity % | barometer mb |
| 20260503223048 | 31 | 275 | 3.2 | 4.8 | 0.00 | 0.00 | 0.00 | 37 | 1009.3 |
| 20260503221543 | 31 | 126 | 1.6 | 8.0 | 0.00 | 0.00 | 0.00 | 38 | 1009.3 |
| 20260503220046 | 31 | 290 | 1.6 | 11.3 | 0.00 | 0.00 | 0.00 | 34 | 1009.5 |
| 20260503214543 | 30 | 270 | 1.6 | 11.3 | 0.00 | 0.00 | 0.00 | 37 | 1009.7 |
| 20260503213043 | 30 | 326 | 3.2 | 9.7 | 0.00 | 0.00 | 0.00 | 38 | 1009.9 |
| 20260503211610 | 30 | 300 | 1.6 | 11.3 | 0.00 | 0.00 | 0.00 | 41 | 1009.9 |
| 20260503210047 | 30 | 322 | 1.6 | 6.4 | 0.00 | 0.00 | 0.00 | 44 | 1010.2 |
| 20260503204544 | 29 | 349 | 1.6 | 4.8 | 0.00 | 0.00 | 0.00 | 44 | 1010.3 |
| 20260503203052 | 28 | 276 | 1.6 | 6.4 | 0.00 | 0.00 | 0.00 | 50 | 1010.4 |
| 20260503201547 | 28 | 320 | 1.6 | 8.0 | 0.00 | 0.00 | 0.00 | 46 | 1010.6 |
| 20260503200054 | 28 | 265 | 1.6 | 6.4 | 0.00 | 0.00 | 0.00 | 51 | 1010.9 |
| 20260503194558 | 27 | 296 | 1.6 | 8.0 | 0.00 | 0.00 | 0.00 | 55 | 1011.1 |
| 20260503193055 | 27 | 319 | 3.2 | 9.7 | 0.00 | 0.00 | 0.00 | 55 | 1011.1 |
| 20260503191548 | 26 | 311 | 0.0 | 6.4 | 0.00 | 0.00 | 0.00 | 58 | 1011.4 |
| 20260503190051 | 26 | 314 | 1.6 | 4.8 | 0.00 | 0.00 | 0.00 | 60 | 1011.6 |
| 20260503184559 | 26 | 261 | 0.0 | 3.2 | 0.00 | 0.00 | 0.00 | 56 | 1011.8 |
| 20260503183047 | 25 | 264 | 1.6 | 6.4 | 0.00 | 0.00 | 0.00 | 63 | 1011.9 |
| 20260503181608 | 24 | 0 | 0.0 | 3.2 | 0.00 | 0.00 | 0.00 | 63 | 1012.0 |
| 20260503180103 | 23 | 321 | 1.6 | 3.2 | 0.00 | 0.00 | 0.00 | 66 | 1012.2 |
| 20260503174554 | 23 | 0 | 0.0 | 3.2 | 0.00 | 0.00 | 0.00 | 66 | 1012.2 |
| 20260503173058 | 22 | 278 | 0.0 | 3.2 | 0.00 | 0.00 | 0.00 | 70 | 1012.4 |
| 20260503171543 | 21 | 0 | 0.0 | 1.6 | 0.00 | 0.00 | 0.00 | 75 | 1012.6 |
| 20260503081546 | 13 | 0 | 0.0 | 0.0 | 0.00 | 0.03 | 0.00 | 94 | 1013.2 |
| 20260503071550 | 13 | 0 | 0.0 | 0.0 | 0.00 | 0.03 | 0.00 | 91 | 1013.2 |
| 20260503054542 | 15 | 0 | 1.6 | 3.2 | 0.00 | 0.03 | 0.03 | 88 | 1013.4 |
| 20260503053045 | 15 | 0 | 0.0 | 0.0 | 0.00 | 0.03 | 0.03 | 86 | 1013.5 |
| 20260503051545 | 15 | 0 | 0.0 | 0.0 | 0.00 | 0.03 | 0.03 | 85 | 1013.6 |
| 20260503050043 | 16 | 0 | 0.0 | 0.0 | 0.00 | 0.03 | 0.03 | 84 | 1013.5 |
| 20260503044548 | 16 | 0 | 0.0 | 0.0 | 0.00 | 0.03 | 0.03 | 83 | 1013.5 |
| 20260503043042 | 16 | 0 | 0.0 | 0.0 | 0.00 | 0.03 | 0.03 | 82 | 1013.5 |
| 20260503041546 | 17 | 0 | 0.0 | 1.6 | 0.00 | 0.03 | 0.03 | 81 | 1013.5 |
| 20260503040100 | 17 | 0 | 0.0 | 1.6 | 0.00 | 0.03 | 0.03 | 79 | 1013.5 |
| 20260503034541 | 18 | 285 | 0.0 | 3.2 | 0.00 | 0.03 | 0.03 | 77 | 1013.3 |
| 20260503033046 | 18 | 266 | 1.6 | 8.0 | 0.00 | 0.03 | 0.03 | 75 | 1013.1 |
| 20260503031542 | 19 | 311 | 3.2 | 8.0 | 0.00 | 0.03 | 0.03 | 72 | 1013.0 |
| 20260503030111 | 20 | 0 | 0.0 | 0.0 | 0.00 | 0.03 | 0.03 | 71 | 1012.7 |
| 20260503024545 | 21 | 14 | 1.6 | 8.0 | 0.00 | 0.03 | 0.03 | 68 | 1012.5 |
| 20260503023042 | 23 | 0 | 0.0 | 3.2 | 0.00 | 0.03 | 0.03 | 63 | 1012.0 |
| 20260503021543 | 25 | 0 | 0.0 | 1.6 | 0.00 | 0.03 | 0.03 | 58 | 1011.8 |
| 20260503020046 | 25 | 0 | 0.0 | 3.2 | 0.00 | 0.03 | 0.03 | 62 | 1011.7 |
| 20260503014600 | 25 | 172 | 0.0 | 0.0 | 0.00 | 0.03 | 0.03 | 58 | 1011.5 |
| 20260503013050 | 25 | 0 | 0.0 | 0.0 | 0.00 | 0.03 | 0.03 | 59 | 1011.6 |
| 20260503011551 | 25 | 0 | 0.0 | 1.6 | 0.00 | 0.03 | 0.03 | 57 | 1011.7 |
| 20260503010040 | 25 | 0 | 0.0 | 3.2 | 0.00 | 0.03 | 0.03 | 58 | 1011.7 |
| 20260503004542 | 23 | 208 | 1.6 | 3.2 | 0.00 | 0.03 | 0.03 | 59 | 1011.8 |
| 20260503003056 | 23 | 316 | 0.0 | 1.6 | 0.00 | 0.03 | 0.03 | 61 | 1011.8 |
| 20260503001559 | 23 | 18 | 1.6 | 4.8 | 0.00 | 0.03 | 0.03 | 64 | 1011.7 |
| 20260503000059 | 23 | 32 | 0.0 | 1.6 | 0.00 | 0.03 | 0.03 | 60 | 1011.9 |
| 20260502234542 | 22 | 0 | 0.0 | 6.4 | 0.00 | 0.03 | 0.03 | 65 | 1012.1 |
| 20260502233046 | 22 | 335 | 0.0 | 4.8 | 0.00 | 0.03 | 0.03 | 65 | 1012.3 |
| 20260502231542 | 22 | 272 | 1.6 | 8.0 | 0.00 | 0.03 | 0.03 | 66 | 1012.4 |
| 20260502230050 | 22 | 318 | 1.6 | 8.0 | 0.00 | 0.03 | 0.03 | 67 | 1012.5 |
| 20260502224549 | 21 | 0 | 0.0 | 6.4 | 0.00 | 0.03 | 0.03 | 69 | 1012.8 |